createdAt,value
2019-02-22T00:00:58.777Z,14.70
2019-02-22T00:03:32.627Z,20.50
2019-02-22T00:06:05.139Z,13.60
2019-02-22T00:08:37.984Z,14.20
2019-02-22T00:11:13.038Z,14.57
2019-02-22T00:13:46.874Z,16.30
2019-02-22T00:16:27.929Z,9.80
2019-02-22T00:19:08.465Z,10.23
2019-02-22T00:21:44.661Z,11.53
2019-02-22T00:24:29.296Z,10.17
2019-02-22T00:26:57.660Z,11.13
2019-02-22T00:29:31.063Z,13.33
2019-02-22T00:32:03.204Z,9.27
2019-02-22T00:34:34.205Z,8.37
2019-02-22T00:37:07.214Z,14.60
2019-02-22T00:39:38.877Z,10.33
2019-02-22T00:42:10.148Z,12.73
2019-02-22T00:44:41.953Z,8.13
2019-02-22T00:47:13.292Z,10.17
2019-02-22T00:49:44.583Z,15.30
2019-02-22T00:52:15.749Z,11.50
2019-02-22T00:54:47.125Z,11.20
2019-02-22T00:57:18.636Z,10.23
2019-02-22T00:59:51.337Z,13.00
2019-02-22T01:02:22.654Z,15.17
2019-02-22T01:04:54.099Z,10.93
2019-02-22T01:07:35.251Z,12.70
2019-02-22T01:10:06.685Z,10.20
2019-02-22T01:12:40.062Z,11.93
2019-02-22T01:15:12.342Z,8.70
2019-02-22T01:17:43.638Z,13.30
2019-02-22T01:20:15.027Z,9.60
2019-02-22T01:22:46.576Z,10.80
2019-02-22T01:25:18.819Z,9.97
2019-02-22T01:27:50.103Z,11.73
2019-02-22T01:30:21.410Z,12.40
2019-02-22T01:32:52.712Z,9.70
2019-02-22T01:35:24.239Z,11.60
2019-02-22T01:37:56.779Z,11.47
2019-02-22T01:40:27.645Z,10.40
2019-02-22T01:42:58.849Z,8.33
2019-02-22T01:45:30.221Z,12.53
2019-02-22T01:48:01.023Z,7.70
2019-02-22T01:50:33.587Z,10.40
2019-02-22T01:53:05.079Z,11.80
2019-02-22T01:55:37.930Z,8.83
2019-02-22T01:58:10.466Z,10.70
2019-02-22T02:01:13.030Z,12.07
2019-02-22T02:03:44.498Z,12.43
2019-02-22T02:06:15.852Z,10.93
2019-02-22T02:08:46.818Z,7.40
2019-02-22T02:11:19.612Z,9.87
2019-02-22T02:13:51.343Z,11.97
2019-02-22T02:16:22.505Z,9.83
2019-02-22T02:18:54.058Z,8.50
2019-02-22T02:21:25.418Z,7.67
2019-02-22T02:23:57.072Z,6.97
2019-02-22T02:26:27.953Z,6.20
2019-02-22T02:29:02.430Z,7.63
2019-02-22T02:31:36.424Z,7.63
2019-02-22T02:34:12.391Z,7.00
2019-02-22T02:36:45.289Z,8.60
2019-02-22T02:39:19.613Z,10.23
2019-02-22T02:41:50.384Z,6.37
2019-02-22T02:44:23.388Z,9.33
2019-02-22T02:46:54.791Z,7.93
2019-02-22T02:49:28.759Z,7.67
2019-02-22T02:52:01.286Z,8.57
2019-02-22T02:54:32.671Z,9.77
2019-02-22T02:57:03.952Z,7.60
2019-02-22T02:59:34.947Z,10.83
2019-02-22T03:02:26.618Z,8.63
2019-02-22T03:05:03.804Z,7.03
2019-02-22T03:07:46.520Z,8.17
2019-02-22T03:10:35.551Z,7.43
2019-02-22T03:13:06.305Z,6.67
2019-02-22T03:15:40.405Z,11.47
2019-02-22T03:18:19.589Z,9.30
2019-02-22T03:20:52.351Z,8.17
2019-02-22T03:23:29.558Z,8.47
2019-02-22T03:26:01.262Z,9.30
2019-02-22T03:29:16.626Z,8.70
2019-02-22T03:31:58.318Z,7.87
2019-02-22T03:34:29.980Z,6.77
2019-02-22T03:37:05.789Z,6.20
2019-02-22T03:39:42.589Z,6.60
2019-02-22T03:42:38.190Z,10.77
2019-02-22T03:45:08.222Z,7.90
2019-02-22T03:47:47.039Z,9.87
2019-02-22T03:50:35.841Z,11.33
2019-02-22T03:53:19.633Z,5.53
2019-02-22T03:55:50.457Z,8.90
2019-02-22T03:58:21.639Z,9.50
2019-02-22T04:00:53.028Z,7.63
2019-02-22T04:03:24.773Z,13.37
2019-02-22T04:05:56.159Z,5.40
2019-02-22T04:08:27.599Z,7.83
2019-02-22T04:10:58.988Z,8.00
2019-02-22T04:13:29.685Z,10.37
2019-02-22T04:16:01.051Z,11.87
2019-02-22T04:18:32.495Z,9.10
2019-02-22T04:21:05.857Z,12.07
2019-02-22T04:23:37.558Z,8.83
2019-02-22T04:26:11.754Z,11.43
2019-02-22T04:28:43.017Z,12.07
2019-02-22T04:31:14.138Z,16.30
2019-02-22T04:33:46.132Z,9.80
2019-02-22T04:36:17.526Z,21.60
2019-02-22T04:38:49.041Z,20.13
2019-02-22T04:41:19.733Z,12.67
2019-02-22T04:43:50.754Z,10.13
2019-02-22T04:46:28.960Z,12.07
2019-02-22T04:49:12.605Z,10.43
2019-02-22T04:51:44.181Z,9.73
2019-02-22T04:54:15.658Z,8.83
2019-02-22T04:56:47.176Z,14.33
2019-02-22T04:59:17.831Z,8.70
2019-02-22T05:01:49.457Z,9.60
2019-02-22T05:04:20.881Z,9.93
2019-02-22T05:06:52.193Z,11.03
2019-02-22T05:09:22.853Z,9.50
2019-02-22T05:11:54.200Z,9.50
2019-02-22T05:14:26.018Z,10.13
2019-02-22T05:16:57.396Z,6.97
2019-02-22T05:19:51.177Z,7.13
2019-02-22T05:22:32.688Z,7.47
2019-02-22T05:25:18.760Z,7.97
2019-02-22T05:27:55.750Z,13.10
2019-02-22T05:30:28.617Z,13.87
2019-02-22T05:33:00.300Z,9.80
2019-02-22T05:35:31.332Z,18.97
2019-02-22T05:38:02.718Z,12.43
2019-02-22T05:40:33.409Z,12.30
2019-02-22T05:43:04.757Z,12.57
2019-02-22T05:45:35.500Z,10.27
2019-02-22T05:48:06.239Z,10.33
2019-02-22T05:50:36.768Z,16.37
2019-02-22T05:53:08.141Z,9.30
2019-02-22T05:55:39.503Z,11.00
2019-02-22T05:58:10.568Z,12.07
2019-02-22T06:00:41.126Z,11.30
2019-02-22T06:03:11.913Z,6.90
2019-02-22T06:05:43.489Z,8.53
2019-02-22T06:08:14.759Z,9.00
2019-02-22T06:10:47.026Z,7.67
2019-02-22T06:13:18.106Z,16.20
2019-02-22T06:15:49.363Z,9.57
2019-02-22T06:18:23.016Z,15.20
2019-02-22T06:20:54.260Z,6.93
2019-02-22T06:23:24.976Z,10.00
2019-02-22T06:25:56.024Z,17.13
2019-02-22T06:28:27.513Z,11.87
2019-02-22T06:30:59.051Z,22.40
2019-02-22T06:33:30.501Z,14.90
2019-02-22T06:36:03.500Z,19.73
2019-02-22T06:38:35.515Z,17.47
2019-02-22T06:41:06.500Z,12.50
2019-02-22T06:43:37.679Z,11.70
2019-02-22T06:46:09.349Z,12.77
2019-02-22T06:48:41.671Z,14.60
2019-02-22T06:51:13.536Z,10.40
2019-02-22T06:53:44.773Z,11.13
2019-02-22T06:56:16.086Z,12.83
2019-02-22T06:58:48.642Z,9.77
2019-02-22T07:01:19.867Z,10.77
2019-02-22T07:03:51.573Z,10.93
2019-02-22T07:06:23.075Z,9.73
2019-02-22T07:08:54.344Z,10.07
2019-02-22T07:11:41.861Z,17.87
2019-02-22T07:14:12.802Z,10.73
2019-02-22T07:16:45.143Z,10.63
2019-02-22T07:19:23.911Z,12.73
2019-02-22T07:21:55.353Z,10.83
2019-02-22T07:24:26.673Z,20.97
2019-02-22T07:26:57.490Z,14.07
2019-02-22T07:29:28.874Z,11.73
2019-02-22T07:32:05.922Z,7.70
2019-02-22T07:34:33.100Z,11.90
2019-02-22T07:37:04.084Z,7.67
2019-02-22T07:39:36.567Z,10.00
2019-02-22T07:42:08.059Z,9.77
2019-02-22T07:44:39.557Z,12.67
2019-02-22T07:47:11.059Z,8.17
2019-02-22T07:49:42.553Z,11.23
2019-02-22T07:52:13.950Z,15.13
2019-02-22T07:54:46.694Z,18.90
2019-02-22T07:57:18.128Z,26.97
2019-02-22T07:59:49.573Z,12.50
2019-02-22T08:02:20.842Z,11.97
2019-02-22T08:04:52.289Z,13.47
2019-02-22T08:07:24.005Z,13.77
2019-02-22T08:09:55.461Z,13.30
2019-02-22T08:12:26.893Z,12.27
2019-02-22T08:14:59.013Z,10.73
2019-02-22T08:17:32.210Z,14.47
2019-02-22T08:20:08.288Z,11.33
2019-02-22T08:22:42.740Z,9.47
2019-02-22T08:25:21.946Z,9.13
2019-02-22T08:27:55.029Z,6.90
2019-02-22T08:30:28.410Z,9.00
2019-02-22T08:33:00.134Z,9.30
2019-02-22T08:35:31.960Z,7.43
2019-02-22T08:38:04.499Z,8.63
2019-02-22T08:40:35.761Z,7.33
2019-02-22T08:43:07.242Z,6.97
2019-02-22T08:45:39.404Z,14.83
2019-02-22T08:48:11.412Z,9.83
2019-02-22T08:50:43.302Z,9.13
2019-02-22T08:53:14.825Z,15.27
2019-02-22T08:55:46.069Z,12.07
2019-02-22T08:58:17.475Z,12.30
2019-02-22T09:00:48.919Z,7.20
2019-02-22T09:03:27.777Z,7.27
2019-02-22T09:06:01.086Z,7.97
2019-02-22T09:08:32.779Z,8.33
2019-02-22T09:11:05.877Z,8.77
2019-02-22T09:13:43.690Z,10.73
2019-02-22T09:16:11.082Z,9.13
2019-02-22T09:18:42.866Z,6.53
2019-02-22T09:21:15.638Z,7.77
2019-02-22T09:23:46.889Z,7.37
2019-02-22T09:26:21.354Z,8.43
2019-02-22T09:28:55.718Z,6.93
2019-02-22T09:31:27.105Z,6.03
2019-02-22T09:33:59.574Z,8.60
2019-02-22T09:36:30.958Z,12.43
2019-02-22T09:39:04.126Z,8.33
2019-02-22T09:41:37.198Z,10.00
2019-02-22T09:44:08.830Z,8.87
2019-02-22T09:46:40.416Z,9.67
2019-02-22T09:49:14.268Z,9.50
2019-02-22T09:51:45.295Z,8.67
2019-02-22T09:54:16.586Z,11.47
2019-02-22T09:56:48.493Z,8.67
2019-02-22T09:59:20.081Z,9.00
2019-02-22T10:01:51.526Z,7.00
2019-02-22T10:04:22.912Z,9.03
2019-02-22T10:06:54.881Z,6.07
2019-02-22T10:09:26.124Z,5.87
2019-02-22T10:11:58.131Z,7.57
2019-02-22T10:14:31.092Z,7.03
2019-02-22T10:17:03.934Z,9.87
2019-02-22T10:19:36.857Z,7.33
2019-02-22T10:22:09.751Z,4.90
2019-02-22T10:24:41.564Z,5.67
2019-02-22T10:27:16.164Z,7.30
2019-02-22T10:29:47.537Z,9.07
2019-02-22T10:32:18.977Z,7.50
2019-02-22T10:34:50.384Z,9.60
2019-02-22T10:37:22.542Z,4.33
2019-02-22T10:39:55.549Z,5.77
2019-02-22T10:42:26.913Z,7.93
2019-02-22T10:45:02.011Z,6.73
2019-02-22T10:47:36.538Z,6.63
2019-02-22T10:50:13.329Z,5.90
2019-02-22T10:52:44.754Z,6.33
2019-02-22T10:55:16.237Z,11.50
2019-02-22T10:57:48.588Z,7.03
2019-02-22T11:00:20.427Z,7.03
2019-02-22T11:02:53.456Z,9.40
2019-02-22T11:05:24.787Z,9.30
2019-02-22T11:07:56.520Z,6.17
2019-02-22T11:10:28.064Z,5.90
2019-02-22T11:12:59.646Z,5.53
2019-02-22T11:15:33.000Z,8.90
2019-02-22T11:18:05.351Z,10.47
2019-02-22T11:20:38.219Z,6.63
2019-02-22T11:23:10.507Z,10.90
2019-02-22T11:25:41.795Z,9.27
2019-02-22T11:28:14.621Z,15.87
2019-02-22T11:30:45.926Z,9.40
2019-02-22T11:33:17.633Z,10.30
2019-02-22T11:35:49.019Z,9.77
2019-02-22T11:38:22.268Z,9.83
2019-02-22T11:40:53.808Z,7.97
2019-02-22T11:43:25.101Z,6.23
2019-02-22T11:46:03.517Z,13.27
2019-02-22T11:48:36.732Z,10.43
2019-02-22T11:51:09.758Z,9.63
2019-02-22T11:53:41.955Z,6.97
2019-02-22T11:56:13.440Z,9.43
2019-02-22T11:58:44.981Z,7.77
2019-02-22T12:01:17.108Z,8.23
2019-02-22T12:03:48.714Z,6.73
2019-02-22T12:06:20.596Z,7.83
2019-02-22T12:08:52.044Z,8.40
2019-02-22T12:11:23.401Z,7.80
2019-02-22T12:13:55.481Z,12.17
2019-02-22T12:16:27.274Z,13.30
2019-02-22T12:19:00.575Z,12.37
2019-02-22T12:21:32.194Z,9.20
2019-02-22T12:24:03.595Z,7.47
2019-02-22T12:26:36.033Z,9.30
2019-02-22T12:29:08.298Z,7.10
2019-02-22T12:31:40.800Z,9.00
2019-02-22T12:34:14.203Z,6.97
2019-02-22T12:36:47.234Z,4.17
2019-02-22T12:39:19.137Z,9.10
2019-02-22T12:41:53.697Z,9.13
2019-02-22T12:44:25.171Z,10.07
2019-02-22T12:46:58.081Z,10.03
2019-02-22T12:49:29.463Z,15.60
2019-02-22T12:52:01.699Z,6.10
2019-02-22T12:54:34.519Z,9.13
2019-02-22T12:57:05.997Z,23.27
2019-02-22T12:59:43.619Z,15.70
2019-02-22T13:02:17.908Z,19.43
2019-02-22T13:04:50.792Z,12.00
2019-02-22T13:07:27.910Z,11.53
2019-02-22T13:09:59.560Z,12.40
2019-02-22T13:12:38.058Z,11.47
2019-02-22T13:15:14.439Z,12.37
2019-02-22T13:17:46.398Z,12.67
2019-02-22T13:20:30.998Z,11.33
2019-02-22T13:23:02.722Z,9.07
2019-02-22T13:25:36.013Z,9.50
2019-02-22T13:28:08.108Z,7.53
2019-02-22T13:30:39.523Z,13.10
2019-02-22T13:33:11.034Z,11.27
2019-02-22T13:35:51.205Z,9.90
2019-02-22T13:38:22.915Z,12.13
2019-02-22T13:40:54.631Z,12.10
2019-02-22T13:43:26.034Z,10.57
2019-02-22T13:45:58.044Z,14.63
2019-02-22T13:48:30.322Z,10.47
2019-02-22T13:51:01.788Z,12.10
2019-02-22T13:53:33.821Z,13.77
2019-02-22T13:56:07.138Z,13.50
2019-02-22T13:58:38.733Z,10.57
2019-02-22T14:01:10.288Z,9.30
2019-02-22T14:03:41.679Z,14.37
2019-02-22T14:06:17.590Z,8.60
2019-02-22T14:08:49.140Z,7.97
2019-02-22T14:11:23.738Z,26.13
2019-02-22T14:13:58.758Z,34.63
2019-02-22T14:16:32.271Z,14.57
2019-02-22T14:22:14.186Z,15.13
2019-02-22T14:24:45.853Z,8.80
2019-02-22T14:27:18.358Z,11.20
2019-02-22T14:29:50.277Z,6.83
2019-02-22T14:32:22.384Z,7.87
2019-02-22T14:34:53.941Z,7.23
2019-02-22T14:37:25.756Z,12.23
2019-02-22T14:40:03.421Z,11.67
2019-02-22T14:42:33.285Z,6.97
2019-02-22T14:45:05.112Z,6.43
2019-02-22T14:47:38.592Z,10.97
2019-02-22T14:50:12.747Z,8.33
2019-02-22T14:52:57.613Z,8.03
2019-02-22T14:55:24.458Z,8.87
2019-02-22T14:57:55.913Z,11.30
2019-02-22T15:00:27.466Z,10.80
2019-02-22T15:02:59.344Z,15.37
2019-02-22T15:05:31.170Z,9.27
2019-02-22T15:08:04.269Z,11.60
2019-02-22T15:10:35.718Z,9.27
2019-02-22T15:13:07.504Z,11.27
2019-02-22T15:16:01.042Z,12.27
2019-02-22T15:18:31.944Z,11.20
2019-02-22T15:21:05.574Z,13.90
2019-02-22T15:23:38.808Z,10.13
2019-02-22T15:26:14.304Z,8.90
2019-02-22T15:28:46.097Z,10.50
2019-02-22T15:31:18.800Z,11.07
2019-02-22T15:33:50.966Z,9.73
2019-02-22T15:36:22.748Z,17.67
2019-02-22T15:38:57.212Z,11.20
2019-02-22T15:41:29.172Z,13.63
2019-02-22T15:44:01.975Z,11.83
2019-02-22T15:46:37.186Z,16.83
2019-02-22T15:49:10.237Z,13.57
2019-02-22T15:51:46.369Z,13.13
2019-02-22T15:54:17.893Z,12.80
2019-02-22T15:56:49.437Z,12.03
2019-02-22T15:59:21.310Z,11.63
2019-02-22T16:01:55.760Z,15.13
2019-02-22T16:05:00.588Z,12.43
2019-02-22T16:07:32.486Z,10.43
2019-02-22T16:10:05.504Z,8.13
2019-02-22T16:12:39.291Z,8.80
2019-02-22T16:15:11.684Z,11.47
2019-02-22T16:17:44.189Z,12.93
2019-02-22T16:20:15.978Z,12.67
2019-02-22T16:22:47.287Z,10.40
2019-02-22T16:25:20.110Z,9.83
2019-02-22T16:27:51.856Z,11.07
2019-02-22T16:30:24.438Z,10.73
2019-02-22T16:32:56.156Z,10.47
2019-02-22T16:35:27.713Z,13.67
2019-02-22T16:37:59.294Z,12.97
2019-02-22T16:40:32.347Z,10.30
2019-02-22T16:43:03.777Z,11.03
2019-02-22T16:45:36.116Z,12.93
2019-02-22T16:48:07.803Z,10.27
2019-02-22T16:50:39.746Z,12.03
2019-02-22T16:53:11.127Z,8.63
2019-02-22T16:55:43.029Z,11.67
2019-02-22T16:58:14.541Z,8.67
2019-02-22T17:00:45.921Z,11.23
2019-02-22T17:03:17.725Z,12.53
2019-02-22T17:05:49.524Z,16.47
2019-02-22T17:08:22.431Z,10.50
2019-02-22T17:10:55.511Z,17.23
2019-02-22T17:13:28.261Z,17.53
2019-02-22T17:16:01.456Z,20.13
2019-02-22T17:18:33.021Z,20.70
2019-02-22T17:21:04.518Z,23.83
2019-02-22T17:23:38.014Z,21.13
2019-02-22T17:26:12.685Z,23.87
2019-02-22T17:28:44.664Z,26.30
2019-02-22T17:31:18.169Z,32.27
2019-02-22T17:33:49.900Z,30.17
2019-02-22T17:36:27.141Z,28.80
2019-02-22T17:38:58.346Z,38.40
2019-02-22T17:41:30.071Z,35.43
2019-02-22T17:44:01.710Z,29.00
2019-02-22T17:46:33.600Z,28.50
2019-02-22T17:49:04.824Z,25.67
2019-02-22T17:51:37.617Z,23.90
2019-02-22T17:54:10.901Z,20.53
2019-02-22T17:56:42.402Z,23.70
2019-02-22T17:59:14.675Z,23.13
2019-02-22T18:01:46.550Z,26.50
2019-02-22T18:04:18.061Z,17.90
2019-02-22T18:06:49.605Z,18.33
2019-02-22T18:09:21.707Z,19.20
2019-02-22T18:11:54.746Z,18.30
2019-02-22T18:14:26.632Z,17.37
2019-02-22T18:17:07.930Z,21.13
2019-02-22T18:19:32.181Z,21.73
2019-02-22T18:22:03.858Z,26.50
2019-02-22T18:24:35.638Z,23.27
2019-02-22T18:27:07.962Z,22.67
2019-02-22T18:29:39.934Z,23.37
2019-02-22T18:32:11.890Z,26.30
2019-02-22T18:34:43.473Z,32.33
2019-02-22T18:37:14.793Z,35.97
2019-02-22T18:39:46.645Z,29.83
2019-02-22T18:42:18.023Z,29.27
2019-02-22T18:44:49.635Z,28.57
2019-02-22T18:47:21.352Z,24.50
2019-02-22T18:49:53.629Z,29.60
2019-02-22T18:52:25.427Z,28.57
2019-02-22T18:54:57.337Z,30.53
2019-02-22T18:57:29.057Z,26.13
2019-02-22T19:00:01.342Z,27.87
2019-02-22T19:02:35.751Z,29.20
2019-02-22T19:05:09.423Z,26.67
2019-02-22T19:07:40.777Z,25.20
2019-02-22T19:10:13.081Z,32.83
2019-02-22T19:12:47.188Z,24.07
2019-02-22T19:15:19.042Z,22.73
2019-02-22T19:17:51.534Z,28.00
2019-02-22T19:20:22.969Z,28.10
2019-02-22T19:22:55.436Z,31.87
2019-02-22T19:25:26.829Z,28.50
2019-02-22T19:27:58.373Z,25.93
2019-02-22T19:30:29.897Z,29.93
2019-02-22T19:33:01.489Z,29.77
2019-02-22T19:35:33.972Z,25.63
2019-02-22T19:38:05.785Z,29.83
2019-02-22T19:41:00.295Z,36.03
2019-02-22T19:43:38.356Z,36.17
2019-02-22T19:46:09.872Z,45.73
2019-02-22T19:48:41.585Z,44.30
2019-02-22T19:51:13.822Z,48.40
2019-02-22T19:53:45.149Z,50.90
2019-02-22T19:56:16.525Z,55.87
2019-02-22T19:58:47.846Z,62.40
2019-02-22T20:01:19.365Z,71.57
2019-02-22T20:03:51.329Z,66.73
2019-02-22T20:06:22.791Z,79.67
2019-02-22T20:08:54.139Z,63.87
2019-02-22T20:11:25.468Z,65.47
2019-02-22T20:13:57.634Z,70.10
2019-02-22T20:16:28.965Z,72.67
2019-02-22T20:19:01.238Z,75.63
2019-02-22T20:21:32.965Z,93.50
2019-02-22T20:24:04.264Z,83.13
2019-02-22T20:26:36.940Z,83.23
2019-02-22T20:29:08.444Z,105.07
2019-02-22T20:31:40.755Z,106.50
2019-02-22T20:34:13.462Z,102.13
2019-02-22T20:36:44.725Z,105.57
2019-02-22T20:39:16.255Z,94.17
2019-02-22T20:41:47.768Z,87.37
2019-02-22T20:44:19.099Z,88.53
2019-02-22T20:46:50.467Z,88.63
2019-02-22T20:49:22.264Z,96.27
2019-02-22T20:51:54.165Z,85.63
2019-02-22T20:54:25.630Z,88.00
2019-02-22T20:56:57.002Z,90.10
2019-02-22T20:59:29.019Z,93.43
2019-02-22T21:02:01.253Z,95.40
2019-02-22T21:04:33.091Z,96.23
2019-02-22T21:07:04.981Z,94.60
2019-02-22T21:09:36.357Z,103.13
2019-02-22T21:12:07.878Z,108.20
2019-02-22T21:14:39.872Z,108.10
2019-02-22T21:17:13.090Z,115.53
2019-02-22T21:19:44.529Z,106.33
2019-02-22T21:22:16.067Z,99.40
2019-02-22T21:24:48.084Z,95.90
2019-02-22T21:27:20.337Z,92.53
2019-02-22T21:29:52.048Z,93.70
2019-02-22T21:32:24.763Z,92.40
2019-02-22T21:34:56.272Z,88.20
2019-02-22T21:37:27.698Z,87.43
2019-02-22T21:40:00.444Z,82.67
2019-02-22T21:42:34.913Z,74.47
2019-02-22T21:45:06.698Z,74.77
2019-02-22T21:47:41.096Z,76.70
2019-02-22T21:50:13.180Z,77.13
2019-02-22T21:52:45.181Z,81.60
2019-02-22T21:55:16.529Z,70.50
2019-02-22T21:57:47.939Z,69.67
2019-02-22T22:00:19.764Z,79.60
2019-02-22T22:02:52.047Z,73.23
2019-02-22T22:05:24.991Z,69.63
2019-02-22T22:07:57.399Z,67.97
2019-02-22T22:10:30.333Z,68.67
2019-02-22T22:13:01.832Z,65.93
2019-02-22T22:15:33.628Z,61.77
2019-02-22T22:18:05.002Z,63.23
2019-02-22T22:20:38.283Z,59.90
2019-02-22T22:23:10.291Z,67.97
2019-02-22T22:25:41.705Z,74.50
2019-02-22T22:28:13.526Z,71.23
2019-02-22T22:30:47.106Z,72.27
2019-02-22T22:33:18.684Z,69.40
2019-02-22T22:35:52.189Z,71.27
2019-02-22T22:38:25.642Z,79.33
2019-02-22T22:40:58.402Z,80.07
2019-02-22T22:43:30.327Z,72.60
2019-02-22T22:46:01.940Z,66.00
2019-02-22T22:48:35.586Z,59.17
2019-02-22T22:51:07.539Z,70.83
2019-02-22T22:53:38.797Z,69.10
2019-02-22T22:56:11.061Z,62.40
2019-02-22T22:58:43.651Z,56.37
2019-02-22T23:01:20.544Z,52.73
2019-02-22T23:03:52.218Z,49.40
2019-02-22T23:06:23.789Z,53.53
2019-02-22T23:08:56.663Z,56.80
2019-02-22T23:11:28.426Z,47.83
2019-02-22T23:14:02.243Z,53.03
2019-02-22T23:16:35.447Z,57.13
2019-02-22T23:19:08.582Z,56.73
2019-02-22T23:21:42.716Z,55.20
2019-02-22T23:24:15.360Z,52.83
2019-02-22T23:26:47.094Z,46.90
2019-02-22T23:29:18.917Z,55.87
2019-02-22T23:31:50.640Z,49.63
2019-02-22T23:34:22.130Z,51.17
2019-02-22T23:36:54.618Z,45.27
2019-02-22T23:39:27.107Z,53.70
2019-02-22T23:41:59.016Z,42.37
2019-02-22T23:44:30.668Z,48.27
2019-02-22T23:47:02.109Z,43.03
2019-02-22T23:49:33.766Z,50.87
2019-02-22T23:52:05.257Z,43.80
2019-02-22T23:54:36.972Z,40.90
2019-02-22T23:57:11.508Z,47.03
2019-02-22T23:59:43.590Z,47.13
